sensor_id;sensor_type;location;lat;lon;timestamp;temperature;humidity
18654;DHT22;9456;47.824;16.228;2023-02-01T00:00:58;4.90;66.50
18654;DHT22;9456;47.824;16.228;2023-02-01T00:03:27;5.00;66.20
18654;DHT22;9456;47.824;16.228;2023-02-01T00:05:57;5.00;66.00
18654;DHT22;9456;47.824;16.228;2023-02-01T00:08:26;5.00;66.00
18654;DHT22;9456;47.824;16.228;2023-02-01T00:11:00;5.00;66.10
18654;DHT22;9456;47.824;16.228;2023-02-01T00:13:32;5.00;66.40
18654;DHT22;9456;47.824;16.228;2023-02-01T00:16:10;5.00;66.50
18654;DHT22;9456;47.824;16.228;2023-02-01T00:18:39;5.00;66.50
18654;DHT22;9456;47.824;16.228;2023-02-01T00:21:07;5.00;66.80
18654;DHT22;9456;47.824;16.228;2023-02-01T00:23:37;5.00;66.90
18654;DHT22;9456;47.824;16.228;2023-02-01T00:26:06;5.00;66.80
18654;DHT22;9456;47.824;16.228;2023-02-01T00:28:34;5.00;67.00
18654;DHT22;9456;47.824;16.228;2023-02-01T00:31:04;5.00;67.10
18654;DHT22;9456;47.824;16.228;2023-02-01T00:33:33;5.00;67.30
18654;DHT22;9456;47.824;16.228;2023-02-01T00:36:02;5.00;67.40
18654;DHT22;9456;47.824;16.228;2023-02-01T00:38:31;4.90;67.60
18654;DHT22;9456;47.824;16.228;2023-02-01T00:41:04;4.90;68.00
18654;DHT22;9456;47.824;16.228;2023-02-01T00:43:33;4.90;68.20
18654;DHT22;9456;47.824;16.228;2023-02-01T00:46:02;4.90;68.60
18654;DHT22;9456;47.824;16.228;2023-02-01T00:48:30;4.90;68.40
18654;DHT22;9456;47.824;16.228;2023-02-01T00:51:01;5.00;68.40
18654;DHT22;9456;47.824;16.228;2023-02-01T00:53:30;5.00;68.30
18654;DHT22;9456;47.824;16.228;2023-02-01T00:55:59;5.00;68.30
18654;DHT22;9456;47.824;16.228;2023-02-01T00:58:28;5.00;68.20
18654;DHT22;9456;47.824;16.228;2023-02-01T01:01:05;5.00;68.20
18654;DHT22;9456;47.824;16.228;2023-02-01T01:03:35;5.00;68.30
18654;DHT22;9456;47.824;16.228;2023-02-01T01:06:05;5.10;68.20
18654;DHT22;9456;47.824;16.228;2023-02-01T01:08:33;5.00;68.00
18654;DHT22;9456;47.824;16.228;2023-02-01T01:11:06;5.10;67.70
18654;DHT22;9456;47.824;16.228;2023-02-01T01:13:35;5.20;67.60
18654;DHT22;9456;47.824;16.228;2023-02-01T01:16:05;5.20;67.20
18654;DHT22;9456;47.824;16.228;2023-02-01T01:18:33;5.30;66.90
18654;DHT22;9456;47.824;16.228;2023-02-01T01:21:02;5.20;66.30
18654;DHT22;9456;47.824;16.228;2023-02-01T01:23:31;5.30;66.00
18654;DHT22;9456;47.824;16.228;2023-02-01T01:26:04;5.40;65.90
18654;DHT22;9456;47.824;16.228;2023-02-01T01:28:30;5.40;65.60
18654;DHT22;9456;47.824;16.228;2023-02-01T01:30:59;5.40;65.70
18654;DHT22;9456;47.824;16.228;2023-02-01T01:33:28;5.40;66.70
18654;DHT22;9456;47.824;16.228;2023-02-01T01:35:57;5.40;65.80
18654;DHT22;9456;47.824;16.228;2023-02-01T01:38:26;5.40;65.90
18654;DHT22;9456;47.824;16.228;2023-02-01T01:40:55;5.40;65.80
18654;DHT22;9456;47.824;16.228;2023-02-01T01:43:23;5.40;65.90
18654;DHT22;9456;47.824;16.228;2023-02-01T01:45:52;5.40;65.70
18654;DHT22;9456;47.824;16.228;2023-02-01T01:48:23;5.40;66.30
18654;DHT22;9456;47.824;16.228;2023-02-01T01:50:51;5.40;66.10
18654;DHT22;9456;47.824;16.228;2023-02-01T01:53:23;5.40;65.90
18654;DHT22;9456;47.824;16.228;2023-02-01T01:55:51;5.40;66.20
18654;DHT22;9456;47.824;16.228;2023-02-01T01:58:21;5.30;66.70
18654;DHT22;9456;47.824;16.228;2023-02-01T02:00:49;5.30;66.20
18654;DHT22;9456;47.824;16.228;2023-02-01T02:03:19;5.30;66.30
18654;DHT22;9456;47.824;16.228;2023-02-01T02:05:48;5.30;66.30
18654;DHT22;9456;47.824;16.228;2023-02-01T02:08:16;5.30;66.50
18654;DHT22;9456;47.824;16.228;2023-02-01T02:10:46;5.30;66.60
18654;DHT22;9456;47.824;16.228;2023-02-01T02:13:31;5.20;66.50
18654;DHT22;9456;47.824;16.228;2023-02-01T02:16:19;5.30;66.50
18654;DHT22;9456;47.824;16.228;2023-02-01T02:18:48;5.30;65.90
18654;DHT22;9456;47.824;16.228;2023-02-01T02:21:19;5.30;65.20
18654;DHT22;9456;47.824;16.228;2023-02-01T02:24:10;5.30;65.50
18654;DHT22;9456;47.824;16.228;2023-02-01T02:27:01;5.30;65.50
18654;DHT22;9456;47.824;16.228;2023-02-01T02:35:37;5.30;66.30
18654;DHT22;9456;47.824;16.228;2023-02-01T02:38:12;5.20;66.70
18654;DHT22;9456;47.824;16.228;2023-02-01T02:40:41;5.10;67.10
18654;DHT22;9456;47.824;16.228;2023-02-01T02:43:10;5.10;67.90
18654;DHT22;9456;47.824;16.228;2023-02-01T02:45:58;5.10;68.60
18654;DHT22;9456;47.824;16.228;2023-02-01T02:48:44;5.00;69.60
18654;DHT22;9456;47.824;16.228;2023-02-01T02:51:14;4.80;70.60
18654;DHT22;9456;47.824;16.228;2023-02-01T02:54:02;4.70;72.30
18654;DHT22;9456;47.824;16.228;2023-02-01T02:59:45;4.70;74.10
18654;DHT22;9456;47.824;16.228;2023-02-01T03:02:32;4.70;73.20
18654;DHT22;9456;47.824;16.228;2023-02-01T03:05:20;4.70;73.60
18654;DHT22;9456;47.824;16.228;2023-02-01T03:08:08;4.70;74.10
18654;DHT22;9456;47.824;16.228;2023-02-01T03:10:43;4.60;74.10
18654;DHT22;9456;47.824;16.228;2023-02-01T03:13:13;4.60;74.30
18654;DHT22;9456;47.824;16.228;2023-02-01T03:15:42;4.60;75.10
18654;DHT22;9456;47.824;16.228;2023-02-01T03:18:13;4.60;74.50
18654;DHT22;9456;47.824;16.228;2023-02-01T03:20:43;4.60;75.10
18654;DHT22;9456;47.824;16.228;2023-02-01T03:23:10;4.60;74.70
18654;DHT22;9456;47.824;16.228;2023-02-01T03:25:39;4.70;73.60
18654;DHT22;9456;47.824;16.228;2023-02-01T03:31:31;4.70;72.30
18654;DHT22;9456;47.824;16.228;2023-02-01T03:34:00;4.70;72.20
18654;DHT22;9456;47.824;16.228;2023-02-01T03:36:31;4.70;70.30
18654;DHT22;9456;47.824;16.228;2023-02-01T03:39:02;4.70;69.80
18654;DHT22;9456;47.824;16.228;2023-02-01T03:41:33;4.70;69.70
18654;DHT22;9456;47.824;16.228;2023-02-01T03:44:04;4.80;69.10
18654;DHT22;9456;47.824;16.228;2023-02-01T03:46:32;4.80;69.10
18654;DHT22;9456;47.824;16.228;2023-02-01T03:49:03;4.80;68.70
18654;DHT22;9456;47.824;16.228;2023-02-01T03:51:31;4.70;69.00
18654;DHT22;9456;47.824;16.228;2023-02-01T03:54:00;4.70;68.90
18654;DHT22;9456;47.824;16.228;2023-02-01T03:56:29;4.70;68.90
18654;DHT22;9456;47.824;16.228;2023-02-01T04:04:24;4.80;67.20
18654;DHT22;9456;47.824;16.228;2023-02-01T04:06:53;4.90;66.70
18654;DHT22;9456;47.824;16.228;2023-02-01T04:09:22;5.00;66.50
18654;DHT22;9456;47.824;16.228;2023-02-01T04:11:51;5.00;66.40
18654;DHT22;9456;47.824;16.228;2023-02-01T04:14:20;5.10;65.50
18654;DHT22;9456;47.824;16.228;2023-02-01T04:16:49;5.20;64.70
18654;DHT22;9456;47.824;16.228;2023-02-01T04:19:18;5.20;64.60
18654;DHT22;9456;47.824;16.228;2023-02-01T04:21:47;5.20;64.50
18654;DHT22;9456;47.824;16.228;2023-02-01T04:24:17;5.20;64.10
18654;DHT22;9456;47.824;16.228;2023-02-01T04:26:46;5.30;64.00
18654;DHT22;9456;47.824;16.228;2023-02-01T04:29:15;5.30;63.90
18654;DHT22;9456;47.824;16.228;2023-02-01T04:31:44;5.40;63.30
18654;DHT22;9456;47.824;16.228;2023-02-01T04:34:13;5.40;62.90
18654;DHT22;9456;47.824;16.228;2023-02-01T04:36:42;5.40;63.00
18654;DHT22;9456;47.824;16.228;2023-02-01T04:39:11;5.40;62.90
18654;DHT22;9456;47.824;16.228;2023-02-01T04:41:40;5.50;62.80
18654;DHT22;9456;47.824;16.228;2023-02-01T04:44:10;5.50;63.00
18654;DHT22;9456;47.824;16.228;2023-02-01T04:46:39;5.50;63.10
18654;DHT22;9456;47.824;16.228;2023-02-01T04:49:08;5.50;62.50
18654;DHT22;9456;47.824;16.228;2023-02-01T04:51:40;5.60;62.70
18654;DHT22;9456;47.824;16.228;2023-02-01T04:54:09;5.60;62.50
18654;DHT22;9456;47.824;16.228;2023-02-01T04:56:38;5.70;62.40
18654;DHT22;9456;47.824;16.228;2023-02-01T04:59:11;5.70;62.50
18654;DHT22;9456;47.824;16.228;2023-02-01T05:01:44;5.70;63.50
18654;DHT22;9456;47.824;16.228;2023-02-01T05:04:13;5.70;62.80
18654;DHT22;9456;47.824;16.228;2023-02-01T05:06:42;5.80;63.00
18654;DHT22;9456;47.824;16.228;2023-02-01T05:09:11;5.80;62.80
18654;DHT22;9456;47.824;16.228;2023-02-01T05:11:40;5.80;62.60
18654;DHT22;9456;47.824;16.228;2023-02-01T05:14:27;5.80;62.70
18654;DHT22;9456;47.824;16.228;2023-02-01T05:16:56;5.80;63.00
18654;DHT22;9456;47.824;16.228;2023-02-01T05:19:25;5.80;62.70
18654;DHT22;9456;47.824;16.228;2023-02-01T05:21:54;5.90;63.00
18654;DHT22;9456;47.824;16.228;2023-02-01T05:24:23;5.90;63.40
18654;DHT22;9456;47.824;16.228;2023-02-01T05:26:52;5.80;63.60
18654;DHT22;9456;47.824;16.228;2023-02-01T05:29:20;5.80;64.30
18654;DHT22;9456;47.824;16.228;2023-02-01T05:31:49;5.80;64.50
18654;DHT22;9456;47.824;16.228;2023-02-01T05:34:18;5.70;64.50
18654;DHT22;9456;47.824;16.228;2023-02-01T05:36:47;5.70;64.20
18654;DHT22;9456;47.824;16.228;2023-02-01T05:39:16;5.70;64.30
18654;DHT22;9456;47.824;16.228;2023-02-01T05:41:46;5.70;64.70
18654;DHT22;9456;47.824;16.228;2023-02-01T05:44:15;5.60;64.80
18654;DHT22;9456;47.824;16.228;2023-02-01T05:46:44;5.60;64.90
18654;DHT22;9456;47.824;16.228;2023-02-01T05:49:13;5.60;65.10
18654;DHT22;9456;47.824;16.228;2023-02-01T05:51:42;5.60;65.30
18654;DHT22;9456;47.824;16.228;2023-02-01T05:54:11;5.60;65.30
18654;DHT22;9456;47.824;16.228;2023-02-01T05:56:40;5.60;65.90
18654;DHT22;9456;47.824;16.228;2023-02-01T05:59:10;5.60;66.20
18654;DHT22;9456;47.824;16.228;2023-02-01T06:01:39;5.50;66.80
18654;DHT22;9456;47.824;16.228;2023-02-01T06:06:58;5.50;67.70
18654;DHT22;9456;47.824;16.228;2023-02-01T06:09:27;5.40;67.90
18654;DHT22;9456;47.824;16.228;2023-02-01T06:11:56;5.40;68.30
18654;DHT22;9456;47.824;16.228;2023-02-01T06:14:25;5.40;68.30
18654;DHT22;9456;47.824;16.228;2023-02-01T06:16:54;5.40;68.00
18654;DHT22;9456;47.824;16.228;2023-02-01T06:19:23;5.40;69.20
18654;DHT22;9456;47.824;16.228;2023-02-01T06:21:52;5.30;69.10
18654;DHT22;9456;47.824;16.228;2023-02-01T06:24:21;5.30;68.80
18654;DHT22;9456;47.824;16.228;2023-02-01T06:26:50;5.40;68.70
18654;DHT22;9456;47.824;16.228;2023-02-01T06:29:19;5.40;67.90
18654;DHT22;9456;47.824;16.228;2023-02-01T06:31:49;5.40;67.30
18654;DHT22;9456;47.824;16.228;2023-02-01T06:34:18;5.50;66.70
18654;DHT22;9456;47.824;16.228;2023-02-01T06:36:47;5.60;66.10
18654;DHT22;9456;47.824;16.228;2023-02-01T06:39:16;5.70;65.20
18654;DHT22;9456;47.824;16.228;2023-02-01T06:41:47;5.70;65.60
18654;DHT22;9456;47.824;16.228;2023-02-01T06:44:16;5.80;66.70
18654;DHT22;9456;47.824;16.228;2023-02-01T06:46:45;5.80;66.80
18654;DHT22;9456;47.824;16.228;2023-02-01T06:49:14;5.80;66.80
18654;DHT22;9456;47.824;16.228;2023-02-01T06:51:43;5.90;66.70
18654;DHT22;9456;47.824;16.228;2023-02-01T06:54:12;6.00;66.30
18654;DHT22;9456;47.824;16.228;2023-02-01T06:56:41;6.20;64.50
18654;DHT22;9456;47.824;16.228;2023-02-01T06:59:10;6.50;63.40
18654;DHT22;9456;47.824;16.228;2023-02-01T07:01:39;6.80;62.00
18654;DHT22;9456;47.824;16.228;2023-02-01T07:04:10;7.00;61.30
18654;DHT22;9456;47.824;16.228;2023-02-01T07:06:44;7.20;59.90
18654;DHT22;9456;47.824;16.228;2023-02-01T07:09:13;7.30;59.20
18654;DHT22;9456;47.824;16.228;2023-02-01T07:11:42;7.30;58.70
18654;DHT22;9456;47.824;16.228;2023-02-01T07:14:12;7.20;58.70
18654;DHT22;9456;47.824;16.228;2023-02-01T07:16:42;7.10;59.00
18654;DHT22;9456;47.824;16.228;2023-02-01T07:19:11;7.00;59.10
18654;DHT22;9456;47.824;16.228;2023-02-01T07:21:40;7.00;59.30
18654;DHT22;9456;47.824;16.228;2023-02-01T07:24:09;7.00;59.40
18654;DHT22;9456;47.824;16.228;2023-02-01T07:26:38;7.00;59.70
18654;DHT22;9456;47.824;16.228;2023-02-01T07:29:07;7.00;59.90
18654;DHT22;9456;47.824;16.228;2023-02-01T07:31:36;7.00;60.10
18654;DHT22;9456;47.824;16.228;2023-02-01T07:34:05;7.00;60.60
18654;DHT22;9456;47.824;16.228;2023-02-01T07:36:34;7.00;60.10
18654;DHT22;9456;47.824;16.228;2023-02-01T07:39:03;7.00;60.10
18654;DHT22;9456;47.824;16.228;2023-02-01T07:41:32;7.10;60.00
18654;DHT22;9456;47.824;16.228;2023-02-01T07:44:01;7.50;59.30
18654;DHT22;9456;47.824;16.228;2023-02-01T07:46:30;8.40;57.90
18654;DHT22;9456;47.824;16.228;2023-02-01T07:48:59;9.00;54.90
18654;DHT22;9456;47.824;16.228;2023-02-01T07:51:28;9.20;54.70
18654;DHT22;9456;47.824;16.228;2023-02-01T07:53:57;9.20;54.50
18654;DHT22;9456;47.824;16.228;2023-02-01T07:56:26;9.20;55.00
18654;DHT22;9456;47.824;16.228;2023-02-01T07:58:55;9.60;54.20
18654;DHT22;9456;47.824;16.228;2023-02-01T08:01:25;10.10;52.00
18654;DHT22;9456;47.824;16.228;2023-02-01T08:03:54;10.40;51.50
18654;DHT22;9456;47.824;16.228;2023-02-01T08:06:23;10.80;51.00
18654;DHT22;9456;47.824;16.228;2023-02-01T08:11:31;10.30;51.20
18654;DHT22;9456;47.824;16.228;2023-02-01T08:14:02;10.40;51.00
18654;DHT22;9456;47.824;16.228;2023-02-01T08:16:31;10.40;50.40
18654;DHT22;9456;47.824;16.228;2023-02-01T08:19:01;10.70;50.10
18654;DHT22;9456;47.824;16.228;2023-02-01T08:21:31;11.40;48.90
18654;DHT22;9456;47.824;16.228;2023-02-01T08:24:06;12.10;48.00
18654;DHT22;9456;47.824;16.228;2023-02-01T08:26:36;12.70;46.30
18654;DHT22;9456;47.824;16.228;2023-02-01T08:29:05;12.90;45.40
18654;DHT22;9456;47.824;16.228;2023-02-01T08:31:34;12.60;44.90
18654;DHT22;9456;47.824;16.228;2023-02-01T08:34:03;12.30;45.80
18654;DHT22;9456;47.824;16.228;2023-02-01T08:36:32;12.30;46.00
18654;DHT22;9456;47.824;16.228;2023-02-01T08:39:01;12.50;45.20
18654;DHT22;9456;47.824;16.228;2023-02-01T08:41:30;12.60;45.30
18654;DHT22;9456;47.824;16.228;2023-02-01T08:43:59;12.70;45.00
18654;DHT22;9456;47.824;16.228;2023-02-01T08:46:28;12.40;44.70
18654;DHT22;9456;47.824;16.228;2023-02-01T08:48:57;11.90;45.90
18654;DHT22;9456;47.824;16.228;2023-02-01T08:51:26;11.60;46.20
18654;DHT22;9456;47.824;16.228;2023-02-01T08:53:55;11.40;47.30
18654;DHT22;9456;47.824;16.228;2023-02-01T08:56:24;11.50;47.10
18654;DHT22;9456;47.824;16.228;2023-02-01T08:58:53;11.80;46.50
18654;DHT22;9456;47.824;16.228;2023-02-01T09:01:22;11.60;46.30
18654;DHT22;9456;47.824;16.228;2023-02-01T09:03:51;11.60;46.40
18654;DHT22;9456;47.824;16.228;2023-02-01T09:06:20;11.60;45.70
18654;DHT22;9456;47.824;16.228;2023-02-01T09:08:49;11.70;45.60
18654;DHT22;9456;47.824;16.228;2023-02-01T09:11:19;11.70;45.70
18654;DHT22;9456;47.824;16.228;2023-02-01T09:13:48;11.50;45.90
18654;DHT22;9456;47.824;16.228;2023-02-01T09:16:19;11.60;46.00
18654;DHT22;9456;47.824;16.228;2023-02-01T09:18:47;11.60;46.10
18654;DHT22;9456;47.824;16.228;2023-02-01T09:21:16;11.60;45.80
18654;DHT22;9456;47.824;16.228;2023-02-01T09:23:45;11.40;46.10
18654;DHT22;9456;47.824;16.228;2023-02-01T09:26:14;11.00;46.50
18654;DHT22;9456;47.824;16.228;2023-02-01T09:28:43;10.80;47.50
18654;DHT22;9456;47.824;16.228;2023-02-01T09:31:12;10.60;48.00
18654;DHT22;9456;47.824;16.228;2023-02-01T09:33:41;10.70;48.40
18654;DHT22;9456;47.824;16.228;2023-02-01T09:36:10;10.30;48.70
18654;DHT22;9456;47.824;16.228;2023-02-01T09:38:40;10.00;48.90
18654;DHT22;9456;47.824;16.228;2023-02-01T09:41:16;9.70;50.50
18654;DHT22;9456;47.824;16.228;2023-02-01T09:43:47;9.70;51.20
18654;DHT22;9456;47.824;16.228;2023-02-01T09:46:20;9.80;51.40
18654;DHT22;9456;47.824;16.228;2023-02-01T09:48:48;10.10;50.00
18654;DHT22;9456;47.824;16.228;2023-02-01T09:51:19;10.50;49.40
18654;DHT22;9456;47.824;16.228;2023-02-01T09:53:48;10.70;49.20
18654;DHT22;9456;47.824;16.228;2023-02-01T09:56:18;10.70;48.90
18654;DHT22;9456;47.824;16.228;2023-02-01T09:58:47;10.40;50.20
18654;DHT22;9456;47.824;16.228;2023-02-01T10:01:16;10.10;51.80
18654;DHT22;9456;47.824;16.228;2023-02-01T10:03:45;10.00;53.80
18654;DHT22;9456;47.824;16.228;2023-02-01T10:06:35;10.00;55.40
18654;DHT22;9456;47.824;16.228;2023-02-01T10:09:14;9.80;58.00
18654;DHT22;9456;47.824;16.228;2023-02-01T10:11:50;9.30;61.90
18654;DHT22;9456;47.824;16.228;2023-02-01T10:14:44;9.10;63.80
18654;DHT22;9456;47.824;16.228;2023-02-01T10:17:16;8.80;66.00
18654;DHT22;9456;47.824;16.228;2023-02-01T10:19:44;8.70;66.90
18654;DHT22;9456;47.824;16.228;2023-02-01T10:22:15;8.80;66.60
18654;DHT22;9456;47.824;16.228;2023-02-01T10:24:44;8.90;66.70
18654;DHT22;9456;47.824;16.228;2023-02-01T10:27:19;9.20;64.30
18654;DHT22;9456;47.824;16.228;2023-02-01T10:29:48;9.20;65.70
18654;DHT22;9456;47.824;16.228;2023-02-01T10:32:18;9.30;64.80
18654;DHT22;9456;47.824;16.228;2023-02-01T10:34:47;9.30;65.40
18654;DHT22;9456;47.824;16.228;2023-02-01T10:37:24;9.30;65.60
18654;DHT22;9456;47.824;16.228;2023-02-01T10:39:55;9.20;65.10
18654;DHT22;9456;47.824;16.228;2023-02-01T10:42:25;9.30;66.10
18654;DHT22;9456;47.824;16.228;2023-02-01T10:44:53;9.30;65.60
18654;DHT22;9456;47.824;16.228;2023-02-01T10:47:22;9.20;65.70
18654;DHT22;9456;47.824;16.228;2023-02-01T10:49:54;9.00;68.30
18654;DHT22;9456;47.824;16.228;2023-02-01T10:52:28;8.90;68.50
18654;DHT22;9456;47.824;16.228;2023-02-01T10:54:55;8.80;69.50
18654;DHT22;9456;47.824;16.228;2023-02-01T10:57:25;8.70;69.80
18654;DHT22;9456;47.824;16.228;2023-02-01T10:59:53;8.80;69.80
18654;DHT22;9456;47.824;16.228;2023-02-01T11:02:25;8.80;69.70
18654;DHT22;9456;47.824;16.228;2023-02-01T11:04:59;8.70;70.20
18654;DHT22;9456;47.824;16.228;2023-02-01T11:07:28;8.80;71.00
18654;DHT22;9456;47.824;16.228;2023-02-01T11:09:57;8.70;70.00
18654;DHT22;9456;47.824;16.228;2023-02-01T11:12:31;8.80;71.40
18654;DHT22;9456;47.824;16.228;2023-02-01T11:15:03;8.90;68.70
18654;DHT22;9456;47.824;16.228;2023-02-01T11:17:42;8.80;69.20
18654;DHT22;9456;47.824;16.228;2023-02-01T11:20:15;8.70;67.70
18654;DHT22;9456;47.824;16.228;2023-02-01T11:22:48;8.60;68.70
18654;DHT22;9456;47.824;16.228;2023-02-01T11:25:17;8.70;68.90
18654;DHT22;9456;47.824;16.228;2023-02-01T11:27:46;8.80;68.30
18654;DHT22;9456;47.824;16.228;2023-02-01T11:30:19;8.80;66.70
18654;DHT22;9456;47.824;16.228;2023-02-01T11:32:48;8.70;66.90
18654;DHT22;9456;47.824;16.228;2023-02-01T11:35:18;8.80;67.50
18654;DHT22;9456;47.824;16.228;2023-02-01T11:37:50;8.90;68.00
18654;DHT22;9456;47.824;16.228;2023-02-01T11:40:27;8.90;64.40
18654;DHT22;9456;47.824;16.228;2023-02-01T11:42:56;8.80;66.30
18654;DHT22;9456;47.824;16.228;2023-02-01T11:45:27;8.70;66.50
18654;DHT22;9456;47.824;16.228;2023-02-01T11:47:56;8.50;66.70
18654;DHT22;9456;47.824;16.228;2023-02-01T11:50:30;8.30;69.10
18654;DHT22;9456;47.824;16.228;2023-02-01T11:53:29;8.20;70.50
18654;DHT22;9456;47.824;16.228;2023-02-01T11:56:01;8.20;71.90
18654;DHT22;9456;47.824;16.228;2023-02-01T11:58:48;8.10;71.90
18654;DHT22;9456;47.824;16.228;2023-02-01T12:01:38;8.00;72.40
18654;DHT22;9456;47.824;16.228;2023-02-01T12:07:05;8.20;73.50
18654;DHT22;9456;47.824;16.228;2023-02-01T12:09:47;8.20;74.30
18654;DHT22;9456;47.824;16.228;2023-02-01T12:12:19;8.20;74.50
18654;DHT22;9456;47.824;16.228;2023-02-01T12:18:24;7.60;76.50
18654;DHT22;9456;47.824;16.228;2023-02-01T12:21:24;7.10;79.30
18654;DHT22;9456;47.824;16.228;2023-02-01T12:24:02;6.90;81.10
18654;DHT22;9456;47.824;16.228;2023-02-01T12:26:40;6.90;82.80
18654;DHT22;9456;47.824;16.228;2023-02-01T12:32:16;6.90;83.80
18654;DHT22;9456;47.824;16.228;2023-02-01T12:35:00;6.80;84.80
18654;DHT22;9456;47.824;16.228;2023-02-01T12:37:33;6.70;84.00
18654;DHT22;9456;47.824;16.228;2023-02-01T12:40:15;6.50;83.60
18654;DHT22;9456;47.824;16.228;2023-02-01T12:42:32;6.40;84.20
18654;DHT22;9456;47.824;16.228;2023-02-01T12:45:06;6.40;84.90
18654;DHT22;9456;47.824;16.228;2023-02-01T12:47:33;6.40;82.80
18654;DHT22;9456;47.824;16.228;2023-02-01T12:50:03;6.60;84.30
18654;DHT22;9456;47.824;16.228;2023-02-01T12:52:34;6.80;83.30
18654;DHT22;9456;47.824;16.228;2023-02-01T12:55:05;7.00;80.40
18654;DHT22;9456;47.824;16.228;2023-02-01T12:57:33;7.00;76.90
18654;DHT22;9456;47.824;16.228;2023-02-01T13:00:06;7.00;76.30
18654;DHT22;9456;47.824;16.228;2023-02-01T13:02:37;7.00;76.00
18654;DHT22;9456;47.824;16.228;2023-02-01T13:05:11;7.30;74.80
18654;DHT22;9456;47.824;16.228;2023-02-01T13:07:36;7.50;73.20
18654;DHT22;9456;47.824;16.228;2023-02-01T13:10:07;7.80;71.50
18654;DHT22;9456;47.824;16.228;2023-02-01T13:12:36;8.00;68.40
18654;DHT22;9456;47.824;16.228;2023-02-01T13:15:09;8.00;69.00
18654;DHT22;9456;47.824;16.228;2023-02-01T13:17:33;7.90;69.70
18654;DHT22;9456;47.824;16.228;2023-02-01T13:20:04;7.70;69.70
18654;DHT22;9456;47.824;16.228;2023-02-01T13:22:36;7.40;71.60
18654;DHT22;9456;47.824;16.228;2023-02-01T13:25:04;7.20;74.70
18654;DHT22;9456;47.824;16.228;2023-02-01T13:27:33;7.10;76.00
18654;DHT22;9456;47.824;16.228;2023-02-01T13:30:03;7.00;75.90
18654;DHT22;9456;47.824;16.228;2023-02-01T13:32:39;7.00;75.40
18654;DHT22;9456;47.824;16.228;2023-02-01T13:35:21;7.00;77.00
18654;DHT22;9456;47.824;16.228;2023-02-01T13:38:03;6.80;72.50
18654;DHT22;9456;47.824;16.228;2023-02-01T13:40:41;6.80;72.60
18654;DHT22;9456;47.824;16.228;2023-02-01T13:43:12;6.80;73.50
18654;DHT22;9456;47.824;16.228;2023-02-01T13:45:45;6.70;75.60
18654;DHT22;9456;47.824;16.228;2023-02-01T13:48:20;6.50;76.00
18654;DHT22;9456;47.824;16.228;2023-02-01T13:50:53;6.30;79.70
18654;DHT22;9456;47.824;16.228;2023-02-01T13:53:23;5.70;82.30
18654;DHT22;9456;47.824;16.228;2023-02-01T13:55:56;5.00;86.20
18654;DHT22;9456;47.824;16.228;2023-02-01T13:58:30;4.50;90.00
18654;DHT22;9456;47.824;16.228;2023-02-01T14:01:34;4.00;91.00
18654;DHT22;9456;47.824;16.228;2023-02-01T14:04:04;3.80;92.00
18654;DHT22;9456;47.824;16.228;2023-02-01T14:06:42;3.60;93.00
18654;DHT22;9456;47.824;16.228;2023-02-01T14:15:26;3.40;94.60
18654;DHT22;9456;47.824;16.228;2023-02-01T14:17:55;3.30;94.70
18654;DHT22;9456;47.824;16.228;2023-02-01T14:20:49;3.20;95.30
18654;DHT22;9456;47.824;16.228;2023-02-01T14:23:20;3.10;95.70
18654;DHT22;9456;47.824;16.228;2023-02-01T14:26:16;2.90;95.70
18654;DHT22;9456;47.824;16.228;2023-02-01T14:29:14;2.80;96.00
18654;DHT22;9456;47.824;16.228;2023-02-01T14:31:39;2.80;96.30
18654;DHT22;9456;47.824;16.228;2023-02-01T14:34:13;2.80;96.70
18654;DHT22;9456;47.824;16.228;2023-02-01T14:36:43;2.80;96.90
18654;DHT22;9456;47.824;16.228;2023-02-01T14:42:21;2.90;97.30
18654;DHT22;9456;47.824;16.228;2023-02-01T14:44:50;3.00;97.50
18654;DHT22;9456;47.824;16.228;2023-02-01T14:47:32;3.00;97.60
18654;DHT22;9456;47.824;16.228;2023-02-01T14:50:35;3.10;97.70
18654;DHT22;9456;47.824;16.228;2023-02-01T14:53:15;3.10;97.80
18654;DHT22;9456;47.824;16.228;2023-02-01T14:55:44;3.20;98.00
18654;DHT22;9456;47.824;16.228;2023-02-01T14:58:18;3.20;97.50
18654;DHT22;9456;47.824;16.228;2023-02-01T15:00:49;3.20;97.10
18654;DHT22;9456;47.824;16.228;2023-02-01T15:03:25;3.20;97.20
18654;DHT22;9456;47.824;16.228;2023-02-01T15:05:57;3.10;97.20
18654;DHT22;9456;47.824;16.228;2023-02-01T15:08:27;3.10;97.30
18654;DHT22;9456;47.824;16.228;2023-02-01T15:10:57;3.00;97.30
18654;DHT22;9456;47.824;16.228;2023-02-01T15:13:26;3.00;97.30
18654;DHT22;9456;47.824;16.228;2023-02-01T15:16:03;2.90;97.20
18654;DHT22;9456;47.824;16.228;2023-02-01T15:18:32;2.80;97.30
18654;DHT22;9456;47.824;16.228;2023-02-01T15:21:01;2.80;97.50
18654;DHT22;9456;47.824;16.228;2023-02-01T15:23:29;2.70;97.50
18654;DHT22;9456;47.824;16.228;2023-02-01T15:25:58;2.60;97.60
18654;DHT22;9456;47.824;16.228;2023-02-01T15:28:32;2.50;97.60
18654;DHT22;9456;47.824;16.228;2023-02-01T15:31:02;2.50;97.90
18654;DHT22;9456;47.824;16.228;2023-02-01T15:33:31;2.50;97.90
18654;DHT22;9456;47.824;16.228;2023-02-01T15:36:09;2.60;97.60
18654;DHT22;9456;47.824;16.228;2023-02-01T15:38:41;2.60;97.40
18654;DHT22;9456;47.824;16.228;2023-02-01T15:41:10;2.60;97.10
18654;DHT22;9456;47.824;16.228;2023-02-01T15:43:40;2.60;96.90
18654;DHT22;9456;47.824;16.228;2023-02-01T15:46:10;2.70;96.40
18654;DHT22;9456;47.824;16.228;2023-02-01T15:48:41;2.70;95.70
18654;DHT22;9456;47.824;16.228;2023-02-01T15:51:14;2.70;95.20
18654;DHT22;9456;47.824;16.228;2023-02-01T15:53:47;2.70;95.10
18654;DHT22;9456;47.824;16.228;2023-02-01T15:56:15;2.70;95.00
18654;DHT22;9456;47.824;16.228;2023-02-01T15:58:45;2.80;94.80
18654;DHT22;9456;47.824;16.228;2023-02-01T16:01:14;2.80;94.60
18654;DHT22;9456;47.824;16.228;2023-02-01T16:03:43;2.80;94.50
18654;DHT22;9456;47.824;16.228;2023-02-01T16:06:12;2.90;94.40
18654;DHT22;9456;47.824;16.228;2023-02-01T16:08:51;3.00;93.30
18654;DHT22;9456;47.824;16.228;2023-02-01T16:11:25;3.10;93.00
18654;DHT22;9456;47.824;16.228;2023-02-01T16:13:53;3.20;92.70
18654;DHT22;9456;47.824;16.228;2023-02-01T16:16:22;3.20;92.80
18654;DHT22;9456;47.824;16.228;2023-02-01T16:18:51;3.30;92.80
18654;DHT22;9456;47.824;16.228;2023-02-01T16:21:20;3.30;92.70
18654;DHT22;9456;47.824;16.228;2023-02-01T16:23:53;3.40;92.60
18654;DHT22;9456;47.824;16.228;2023-02-01T16:26:22;3.40;92.70
18654;DHT22;9456;47.824;16.228;2023-02-01T16:28:51;3.40;92.60
18654;DHT22;9456;47.824;16.228;2023-02-01T16:31:22;3.40;92.50
18654;DHT22;9456;47.824;16.228;2023-02-01T16:33:50;3.50;92.30
18654;DHT22;9456;47.824;16.228;2023-02-01T16:36:20;3.60;91.80
18654;DHT22;9456;47.824;16.228;2023-02-01T16:38:49;3.60;91.00
18654;DHT22;9456;47.824;16.228;2023-02-01T16:41:18;3.80;90.70
18654;DHT22;9456;47.824;16.228;2023-02-01T16:43:46;3.90;90.00
18654;DHT22;9456;47.824;16.228;2023-02-01T16:46:16;4.10;88.50
18654;DHT22;9456;47.824;16.228;2023-02-01T16:48:46;4.10;90.10
18654;DHT22;9456;47.824;16.228;2023-02-01T16:51:14;4.20;88.20
18654;DHT22;9456;47.824;16.228;2023-02-01T16:53:43;4.30;86.70